Time;durP1;ratioP1;P1;durP2;ratioP2;P2;SDS_P1;SDS_P2;PMS_P1;PMS_P2;Temp;Humidity;BMP_temperature;BMP_pressure;BME280_temperature;BME280_humidity;BME280_pressure;Samples;Min_cycle;Max_cycle;Signal;HPM_P1;HPM_P2
2021/05/31 00:01:37;;;;;;;39.13;29.03;;;9.50;91.80;;;;;;5052122;28;20394;-67
2021/05/31 00:04:03;;;;;;;39.73;28.60;;;9.40;91.80;;;;;;5052384;28;20070;-67
2021/05/31 00:06:35;;;;;;;112.00;28.73;;;9.40;91.90;;;;;;5051226;28;20327;-67
2021/05/31 00:09:01;;;;;;;119.22;28.75;;;9.40;91.90;;;;;;5052351;28;20053;-67
2021/05/31 00:11:26;;;;;;;87.30;29.70;;;9.40;91.90;;;;;;5051892;28;20063;-67
2021/05/31 00:13:52;;;;;;;174.70;31.60;;;9.30;92.00;;;;;;5051687;28;20045;-67
2021/05/31 00:16:17;;;;;;;75.23;30.70;;;9.30;92.10;;;;;;5052046;28;20143;-67
2021/05/31 00:18:43;;;;;;;181.60;32.90;;;9.20;92.20;;;;;;5052192;28;20048;-67
2021/05/31 00:21:09;;;;;;;97.40;31.27;;;9.20;92.20;;;;;;5051142;28;20049;-67
2021/05/31 00:23:34;;;;;;;80.53;31.27;;;9.20;92.30;;;;;;5051773;28;20045;-67
2021/05/31 00:26:00;;;;;;;76.87;30.17;;;9.20;92.40;;;;;;5051860;28;20076;-67
2021/05/31 00:28:25;;;;;;;49.73;31.40;;;9.20;92.40;;;;;;5051016;28;20047;-67
2021/05/31 00:30:51;;;;;;;100.33;32.27;;;9.20;92.50;;;;;;5052132;28;20056;-67
2021/05/31 00:33:17;;;;;;;58.20;33.60;;;9.20;92.50;;;;;;5051346;28;20096;-67
2021/05/31 00:35:42;;;;;;;90.70;33.97;;;9.20;92.50;;;;;;5050930;28;20049;-67
2021/05/31 00:38:08;;;;;;;91.23;34.37;;;9.20;92.70;;;;;;5051690;28;20354;-67
2021/05/31 00:40:34;;;;;;;72.80;33.63;;;9.20;92.70;;;;;;5051155;28;20065;-67
2021/05/31 00:43:00;;;;;;;58.07;33.40;;;9.20;92.70;;;;;;5050719;28;20544;-67
2021/05/31 00:45:28;;;;;;;62.70;33.50;;;9.20;92.80;;;;;;5051388;28;20288;-67
2021/05/31 00:47:54;;;;;;;58.73;32.17;;;9.20;92.90;;;;;;5051366;28;20179;-67
2021/05/31 00:50:19;;;;;;;163.53;35.40;;;9.20;92.90;;;;;;5050934;28;20430;-67
2021/05/31 00:52:45;;;;;;;75.23;34.10;;;9.20;92.90;;;;;;5051223;28;20075;-67
2021/05/31 00:55:12;;;;;;;56.33;31.93;;;9.20;92.90;;;;;;5050581;28;20049;-67
2021/05/31 00:57:37;;;;;;;63.70;34.20;;;9.20;93.00;;;;;;5051581;28;20128;-67
2021/05/31 01:00:06;;;;;;;59.43;33.43;;;9.20;93.00;;;;;;5051393;28;20327;-67
2021/05/31 01:02:32;;;;;;;54.73;34.47;;;9.20;93.10;;;;;;5050364;28;20052;-67
2021/05/31 01:04:58;;;;;;;55.30;33.30;;;9.20;93.10;;;;;;5051388;28;20327;-67
2021/05/31 01:07:49;;;;;;;79.73;33.30;;;9.20;93.20;;;;;;5050870;28;20364;-66
2021/05/31 01:10:25;;;;;;;90.97;33.93;;;9.20;93.30;;;;;;5050285;28;20107;-67
2021/05/31 01:13:00;;;;;;;57.50;34.20;;;9.30;93.30;;;;;;5051258;28;20295;-67
2021/05/31 01:15:32;;;;;;;58.93;35.53;;;9.30;93.20;;;;;;5050819;28;20323;-67
2021/05/31 01:18:15;;;;;;;57.42;34.70;;;9.30;93.30;;;;;;5050373;28;20361;-67
2021/05/31 01:21:06;;;;;;;53.27;32.53;;;9.30;93.30;;;;;;5051077;28;20131;-67
2021/05/31 01:23:38;;;;;;;51.80;30.77;;;9.40;93.30;;;;;;5049996;28;20826;-66
2021/05/31 01:26:22;;;;;;;45.22;30.25;;;9.40;93.30;;;;;;5050942;28;20302;-67
2021/05/31 01:29:00;;;;;;;47.67;29.50;;;9.40;93.20;;;;;;5051187;28;20059;-67
2021/05/31 01:31:48;;;;;;;39.10;28.30;;;9.40;93.30;;;;;;5050180;28;20787;-67
2021/05/31 01:34:19;;;;;;;38.40;27.03;;;9.40;93.30;;;;;;5050863;28;20398;-67
2021/05/31 01:36:49;;;;;;;38.60;26.97;;;9.40;93.30;;;;;;5050836;28;20288;-67
2021/05/31 01:39:25;;;;;;;41.13;29.03;;;9.40;93.30;;;;;;5049888;28;20295;-67
2021/05/31 01:41:52;;;;;;;46.63;28.83;;;9.50;93.40;;;;;;5050959;28;20774;-66
2021/05/31 01:44:19;;;;;;;44.53;27.53;;;9.50;93.40;;;;;;5049843;28;20311;-67
2021/05/31 01:46:46;;;;;;;38.43;27.70;;;9.50;93.40;;;;;;5050813;28;20307;-67
2021/05/31 01:49:13;;;;;;;45.40;28.60;;;9.50;93.40;;;;;;5050679;28;20366;-67
2021/05/31 01:51:40;;;;;;;42.77;28.87;;;9.60;93.90;;;;;;5050345;28;20331;-67
2021/05/31 01:54:10;;;;;;;54.90;27.60;;;9.60;93.50;;;;;;5051169;28;20366;-67
2021/05/31 01:56:37;;;;;;;39.53;25.73;;;9.60;93.40;;;;;;5050652;28;20705;-67
2021/05/31 01:59:05;;;;;;;45.83;29.57;;;9.60;93.40;;;;;;5050280;28;20307;-67
2021/05/31 02:01:34;;;;;;;44.33;31.20;;;9.60;93.40;;;;;;5050420;28;20395;-67
2021/05/31 02:04:00;;;;;;;58.03;32.87;;;9.60;93.50;;;;;;5052605;28;20394;-67
2021/05/31 02:06:27;;;;;;;53.33;32.50;;;9.50;93.50;;;;;;5053580;28;20673;-66
2021/05/31 02:08:53;;;;;;;48.97;32.10;;;9.60;93.50;;;;;;5054575;28;20806;-67
2021/05/31 02:11:37;;;;;;;48.83;31.80;;;9.60;93.60;;;;;;5054078;28;20296;-67
2021/05/31 02:14:36;;;;;;;133.93;32.73;;;9.60;93.60;;;;;;5053845;28;20048;-67
2021/05/31 02:17:16;;;;;;;50.13;31.40;;;9.60;93.60;;;;;;5036696;28;20300;-67
2021/05/31 02:19:44;;;;;;;47.47;29.73;;;9.60;93.60;;;;;;5053884;28;20728;-67
2021/05/31 02:22:13;;;;;;;58.37;31.73;;;9.60;93.60;;;;;;5053954;28;20419;-66
2021/05/31 02:24:39;;;;;;;61.23;30.47;;;9.60;93.70;;;;;;5054277;28;20346;-67
2021/05/31 02:27:06;;;;;;;56.70;26.40;;;9.60;93.70;;;;;;5053720;28;20302;-67
2021/05/31 02:29:32;;;;;;;66.17;27.07;;;9.70;93.80;;;;;;5054127;28;20382;-67
2021/05/31 02:31:58;;;;;;;117.13;28.60;;;9.70;93.80;;;;;;5054230;28;20303;-67
2021/05/31 02:34:28;;;;;;;49.43;24.93;;;9.60;93.70;;;;;;5053190;28;20361;-67
2021/05/31 02:36:55;;;;;;;48.20;28.57;;;9.60;93.80;;;;;;5053989;28;20330;-67
2021/05/31 02:39:21;;;;;;;80.60;29.60;;;9.70;93.90;;;;;;5053574;28;20390;-67
2021/05/31 02:41:46;;;;;;;65.53;29.40;;;9.70;93.90;;;;;;5052950;28;20486;-66
2021/05/31 02:44:12;;;;;;;58.27;27.90;;;9.70;94.00;;;;;;5053951;28;20049;-67
2021/05/31 02:46:39;;;;;;;60.87;29.53;;;9.70;94.00;;;;;;5053583;28;20498;-67
2021/05/31 02:49:07;;;;;;;124.80;30.33;;;9.70;94.10;;;;;;5053217;28;20295;-67
2021/05/31 02:51:33;;;;;;;68.03;28.70;;;9.70;94.10;;;;;;5053263;28;20053;-67
2021/05/31 02:53:59;;;;;;;59.70;29.77;;;9.80;94.20;;;;;;5053596;28;20098;-67
2021/05/31 02:56:25;;;;;;;73.17;30.17;;;9.70;94.10;;;;;;5052439;28;20048;-67
2021/05/31 02:58:50;;;;;;;85.43;32.27;;;9.80;94.20;;;;;;5053535;28;20122;-67
2021/05/31 03:01:16;;;;;;;75.13;31.03;;;9.80;94.20;;;;;;5053108;28;20444;-67
2021/05/31 03:03:42;;;;;;;105.60;31.77;;;9.80;94.30;;;;;;5052499;28;20480;-66
2021/05/31 03:06:07;;;;;;;84.53;30.87;;;9.90;94.30;;;;;;5053409;28;20045;-67
2021/05/31 03:08:33;;;;;;;81.03;29.80;;;9.90;94.30;;;;;;5052548;28;20045;-67
2021/05/31 03:10:59;;;;;;;100.50;31.60;;;9.90;94.30;;;;;;5053055;28;20136;-67
2021/05/31 03:13:25;;;;;;;87.67;31.97;;;9.90;94.30;;;;;;5052912;28;20053;-67
2021/05/31 03:15:51;;;;;;;128.13;31.63;;;10.00;94.40;;;;;;5052137;28;20555;-67
2021/05/31 03:18:17;;;;;;;42.13;20.93;;;10.00;94.40;;;;;;5052868;28;20057;-67
2021/05/31 03:20:43;;;;;;;85.10;31.03;;;10.00;94.70;;;;;;5053084;28;20476;-67
2021/05/31 03:23:09;;;;;;;98.77;25.27;;;10.10;94.40;;;;;;5052189;28;20144;-67
2021/05/31 03:25:34;;;;;;;86.83;27.33;;;10.10;94.40;;;;;;5052627;28;20056;-67
2021/05/31 03:28:01;;;;;;;79.90;27.53;;;10.10;94.40;;;;;;5053079;28;20135;-67
2021/05/31 03:30:27;;;;;;;78.30;28.57;;;10.10;94.40;;;;;;5052043;28;20041;-67
2021/05/31 03:32:53;;;;;;;112.20;28.97;;;10.10;94.40;;;;;;5052977;28;20099;-67
2021/05/31 03:35:19;;;;;;;69.77;28.40;;;10.10;94.50;;;;;;5052678;28;20045;-67
2021/05/31 03:37:45;;;;;;;86.00;29.17;;;10.10;94.90;;;;;;5052252;28;20095;-67
2021/05/31 03:40:13;;;;;;;54.80;26.40;;;10.10;94.50;;;;;;5052982;28;20045;-67
2021/05/31 03:42:39;;;;;;;53.23;26.00;;;10.10;94.50;;;;;;5052703;28;20131;-67
2021/05/31 03:45:07;;;;;;;81.90;28.63;;;10.20;94.60;;;;;;5052165;28;20139;-67
2021/05/31 03:47:33;;;;;;;55.33;28.03;;;10.20;94.60;;;;;;5052157;28;20570;-67
2021/05/31 03:49:59;;;;;;;50.47;28.00;;;10.20;94.60;;;;;;5052334;28;20045;-67
2021/05/31 03:52:24;;;;;;;94.77;29.63;;;10.20;94.60;;;;;;5051739;28;20503;-67
2021/05/31 03:54:50;;;;;;;93.13;30.27;;;10.20;94.50;;;;;;5052675;28;20048;-67
2021/05/31 03:57:16;;;;;;;77.70;31.03;;;10.20;94.50;;;;;;5052202;28;20126;-67
2021/05/31 03:59:42;;;;;;;53.43;27.67;;;10.20;94.60;;;;;;5051644;28;20488;-67
2021/05/31 04:02:08;;;;;;;43.03;27.53;;;10.20;94.60;;;;;;5052519;28;20135;-67
2021/05/31 04:04:42;;;;;;;58.50;30.40;;;10.20;94.60;;;;;;5051852;28;20078;-67
2021/05/31 04:12:37;;;;;;;44.40;27.33;;;10.20;94.60;;;;;;5051139;28;20049;-67
2021/05/31 04:15:04;;;;;;;55.63;30.03;;;10.20;94.60;;;;;;5052028;28;20051;-67
2021/05/31 04:17:29;;;;;;;38.87;27.33;;;10.20;94.50;;;;;;5051913;28;20071;-67
2021/05/31 04:19:55;;;;;;;43.33;28.33;;;10.20;94.50;;;;;;5051700;28;20438;-67
2021/05/31 04:22:21;;;;;;;40.03;24.83;;;10.20;94.60;;;;;;5051521;28;20484;-67
2021/05/31 04:24:47;;;;;;;42.00;28.40;;;10.30;94.60;;;;;;5051901;28;20409;-67
2021/05/31 04:27:12;;;;;;;61.37;27.33;;;10.20;94.50;;;;;;5049917;28;20068;-67
2021/05/31 04:29:38;;;;;;;43.23;26.30;;;10.30;94.50;;;;;;5051683;28;20083;-67
2021/05/31 04:32:04;;;;;;;41.27;23.80;;;10.30;94.50;;;;;;5051759;28;20129;-67
2021/05/31 04:34:30;;;;;;;41.07;25.20;;;10.30;94.50;;;;;;5050714;28;20079;-67
2021/05/31 04:36:56;;;;;;;57.27;23.47;;;10.30;94.50;;;;;;5051810;28;20101;-67
2021/05/31 04:39:21;;;;;;;35.13;19.50;;;10.20;94.50;;;;;;5051589;28;20118;-67
2021/05/31 04:41:47;;;;;;;41.80;21.57;;;10.20;94.50;;;;;;5050802;28;20053;-67
2021/05/31 04:44:13;;;;;;;50.93;27.77;;;10.20;94.60;;;;;;5051356;28;20052;-67
2021/05/31 04:46:39;;;;;;;52.00;27.20;;;10.30;94.70;;;;;;5051419;28;20132;-67
2021/05/31 04:49:05;;;;;;;44.63;24.73;;;10.30;94.70;;;;;;5050991;28;20049;-67
2021/05/31 04:51:31;;;;;;;52.73;22.07;;;10.40;94.70;;;;;;5051507;28;20386;-67
2021/05/31 04:53:58;;;;;;;50.60;26.00;;;10.40;94.70;;;;;;5051427;28;20118;-67
2021/05/31 04:56:25;;;;;;;63.03;22.90;;;10.40;94.70;;;;;;5050496;28;20178;-67
2021/05/31 04:58:50;;;;;;;48.87;26.20;;;10.50;94.70;;;;;;5051256;28;20045;-67
2021/05/31 05:01:17;;;;;;;51.80;25.03;;;10.50;94.70;;;;;;5050237;28;20125;-67
2021/05/31 05:03:46;;;;;;;76.00;27.67;;;10.50;94.70;;;;;;5051471;28;20154;-67
2021/05/31 05:06:11;;;;;;;43.43;23.47;;;10.50;94.70;;;;;;5051412;28;20107;-67
2021/05/31 05:08:37;;;;;;;64.33;23.60;;;10.60;94.70;;;;;;5050570;28;20045;-67
2021/05/31 05:11:03;;;;;;;42.00;24.50;;;10.60;94.80;;;;;;5051174;28;20049;-67
2021/05/31 05:13:32;;;;;;;59.37;25.03;;;10.60;94.70;;;;;;5050932;28;20056;-67
2021/05/31 05:15:58;;;;;;;87.07;25.33;;;10.70;94.80;;;;;;5050563;28;20451;-67
2021/05/31 05:18:24;;;;;;;90.63;25.53;;;10.70;94.80;;;;;;5051105;28;20045;-67
2021/05/31 05:20:50;;;;;;;48.03;25.13;;;10.70;94.80;;;;;;5050908;28;20128;-67
2021/05/31 05:23:16;;;;;;;104.77;28.47;;;10.70;94.80;;;;;;5049883;28;20486;-67
2021/05/31 05:25:42;;;;;;;70.63;26.20;;;10.70;94.80;;;;;;5051315;28;20059;-67
2021/05/31 05:28:07;;;;;;;54.33;24.13;;;10.70;94.80;;;;;;5050747;28;20095;-67
2021/05/31 05:30:33;;;;;;;54.03;28.20;;;10.70;94.80;;;;;;5049959;28;20140;-67
2021/05/31 05:33:00;;;;;;;68.30;27.90;;;10.70;94.90;;;;;;5051291;28;20057;-67
2021/05/31 05:35:39;;;;;;;68.00;30.67;;;10.80;95.00;;;;;;5050658;28;20060;-67
2021/05/31 05:38:13;;;;;;;52.03;28.43;;;10.80;95.00;;;;;;5051907;28;20140;-67
2021/05/31 05:41:04;;;;;;;56.43;28.57;;;10.90;95.00;;;;;;5054948;28;20139;-67
2021/05/31 05:48:30;;;;;;;64.45;30.92;;;11.00;94.90;;;;;;5054797;28;20053;-67
2021/05/31 05:51:05;;;;;;;64.70;31.37;;;11.10;95.00;;;;;;5054099;28;20079;-67
2021/05/31 05:53:33;;;;;;;84.30;30.17;;;11.20;94.90;;;;;;5054629;28;20057;-67
2021/05/31 05:55:59;;;;;;;61.53;30.57;;;11.20;94.90;;;;;;5054846;28;20114;-67
2021/05/31 05:58:28;;;;;;;58.00;30.80;;;11.20;94.90;;;;;;5053921;28;20066;-67
2021/05/31 06:00:56;;;;;;;66.60;31.93;;;11.20;94.90;;;;;;5054575;28;20066;-67
2021/05/31 06:03:21;;;;;;;56.73;30.73;;;11.20;94.90;;;;;;5054212;28;20551;-67
2021/05/31 06:05:47;;;;;;;64.70;34.73;;;11.20;94.90;;;;;;5054185;28;20049;-67
2021/05/31 06:08:13;;;;;;;58.07;32.90;;;11.30;94.90;;;;;;5054396;28;20057;-67
2021/05/31 06:10:38;;;;;;;61.40;31.57;;;11.30;95.00;;;;;;5054332;28;20086;-67
2021/05/31 06:13:04;;;;;;;55.07;31.23;;;11.40;95.00;;;;;;5053613;28;20056;-67
2021/05/31 06:15:30;;;;;;;53.90;30.93;;;11.40;95.30;;;;;;5053911;28;20071;-67
2021/05/31 06:17:56;;;;;;;50.10;29.97;;;11.50;94.90;;;;;;5054049;28;20049;-67
2021/05/31 06:20:21;;;;;;;50.23;29.77;;;11.50;94.80;;;;;;5053423;28;20462;-67
2021/05/31 06:22:47;;;;;;;39.13;23.33;;;11.60;94.80;;;;;;5054018;28;20068;-67
2021/05/31 06:25:13;;;;;;;35.13;23.17;;;11.50;94.70;;;;;;5053922;28;20134;-67
2021/05/31 06:27:39;;;;;;;52.57;31.60;;;11.50;94.70;;;;;;5053698;28;20521;-67
2021/05/31 06:30:06;;;;;;;39.77;26.03;;;11.60;94.70;;;;;;5054360;28;20059;-67
2021/05/31 06:32:32;;;;;;;40.03;25.07;;;11.60;94.80;;;;;;5053300;28;20052;-67
2021/05/31 06:34:58;;;;;;;46.50;28.93;;;11.60;94.80;;;;;;5054032;28;20052;-67
2021/05/31 06:37:24;;;;;;;48.13;29.10;;;11.70;94.80;;;;;;5053673;28;20508;-67
2021/05/31 06:40:14;;;;;;;52.93;30.47;;;11.70;94.80;;;;;;5038644;28;20041;-67
2021/05/31 06:42:42;;;;;;;56.75;31.58;;;11.80;94.80;;;;;;5053353;28;20514;-67
2021/05/31 06:45:11;;;;;;;49.47;30.23;;;11.80;94.70;;;;;;5053719;28;20053;-67
2021/05/31 06:47:37;;;;;;;52.80;30.50;;;11.80;94.70;;;;;;5053060;28;20072;-67
2021/05/31 06:50:06;;;;;;;53.63;29.67;;;11.90;94.70;;;;;;5052975;28;20470;-67
2021/05/31 06:52:33;;;;;;;53.03;30.23;;;12.00;94.70;;;;;;5053460;28;20373;-67
2021/05/31 06:54:59;;;;;;;43.03;28.53;;;12.10;94.60;;;;;;5053010;28;20084;-67
2021/05/31 06:57:25;;;;;;;44.90;28.93;;;12.10;94.60;;;;;;5054114;28;20049;-66
2021/05/31 06:59:51;;;;;;;40.33;27.70;;;12.10;94.40;;;;;;5054209;28;20049;-67
2021/05/31 07:02:17;;;;;;;46.07;28.70;;;12.20;94.40;;;;;;5052703;28;20106;-67
2021/05/31 07:04:43;;;;;;;47.73;29.60;;;12.20;94.40;;;;;;5053536;28;20059;-66
2021/05/31 07:07:09;;;;;;;46.13;27.73;;;12.20;94.30;;;;;;5053582;28;20135;-67
2021/05/31 07:09:35;;;;;;;46.87;29.77;;;12.30;94.30;;;;;;5052350;28;20084;-66
2021/05/31 07:12:01;;;;;;;43.80;29.70;;;12.30;94.30;;;;;;5053267;28;20110;-67
2021/05/31 07:14:34;;;;;;;47.47;29.03;;;12.30;94.20;;;;;;5053111;28;20037;-67
2021/05/31 07:17:00;;;;;;;43.27;27.40;;;12.40;94.20;;;;;;5052818;28;20048;-67
2021/05/31 07:19:27;;;;;;;44.50;29.27;;;12.40;94.20;;;;;;5052347;28;20045;-67
2021/05/31 07:21:53;;;;;;;46.27;30.13;;;12.40;94.00;;;;;;5052021;28;20144;-66
2021/05/31 07:24:20;;;;;;;47.00;29.57;;;12.40;94.00;;;;;;5052079;28;20056;-67
2021/05/31 07:26:47;;;;;;;47.03;28.80;;;12.40;94.10;;;;;;5053101;28;20053;-67
2021/05/31 07:29:12;;;;;;;42.33;28.13;;;12.50;94.10;;;;;;5052047;28;20052;-66
2021/05/31 07:31:38;;;;;;;42.33;28.17;;;12.60;94.10;;;;;;5053004;28;20083;-66
2021/05/31 07:34:07;;;;;;;43.20;29.20;;;12.70;94.10;;;;;;5052535;28;20060;-66
2021/05/31 07:36:33;;;;;;;45.77;30.20;;;12.70;94.00;;;;;;5051465;28;20156;-66
2021/05/31 07:38:59;;;;;;;41.70;29.53;;;12.80;94.00;;;;;;5052918;28;20136;-67
2021/05/31 07:41:24;;;;;;;45.80;30.23;;;12.90;93.90;;;;;;5052055;28;20270;-67
2021/05/31 07:44:00;;;;;;;39.73;27.13;;;13.00;93.70;;;;;;5052157;28;20056;-67
2021/05/31 07:46:25;;;;;;;39.93;27.90;;;13.10;93.60;;;;;;5052604;28;20385;-67
2021/05/31 07:48:52;;;;;;;39.07;28.70;;;13.20;93.50;;;;;;5052360;28;20079;-67
2021/05/31 07:51:20;;;;;;;33.80;27.17;;;13.30;93.30;;;;;;5051594;28;20045;-67
2021/05/31 07:53:49;;;;;;;44.60;28.00;;;13.30;93.10;;;;;;5052168;28;20059;-66
2021/05/31 07:56:15;;;;;;;35.57;26.17;;;13.40;93.00;;;;;;5051856;28;20529;-67
2021/05/31 07:58:45;;;;;;;35.87;27.13;;;13.40;92.90;;;;;;5051608;28;20139;-67
2021/05/31 08:01:11;;;;;;;37.47;28.63;;;13.40;92.80;;;;;;5051859;28;20080;-67
2021/05/31 08:03:38;;;;;;;40.23;28.13;;;13.40;92.70;;;;;;5051669;28;20049;-67
2021/05/31 08:06:04;;;;;;;36.27;26.30;;;13.40;92.70;;;;;;5051776;28;20052;-67
2021/05/31 08:08:30;;;;;;;37.47;27.33;;;13.40;92.60;;;;;;5051703;28;20049;-66
2021/05/31 08:10:55;;;;;;;37.10;27.67;;;13.50;92.60;;;;;;5052251;28;20088;-66
2021/05/31 08:13:22;;;;;;;35.50;26.67;;;13.50;92.50;;;;;;5050933;28;20052;-66
2021/05/31 08:15:48;;;;;;;40.47;29.03;;;13.60;92.50;;;;;;5051748;28;20478;-66
2021/05/31 08:18:14;;;;;;;37.73;29.33;;;13.60;92.40;;;;;;5050541;28;20553;-66
2021/05/31 08:20:40;;;;;;;36.20;26.47;;;13.70;92.40;;;;;;5051719;28;20045;-66
2021/05/31 08:23:07;;;;;;;30.70;25.73;;;13.70;92.30;;;;;;5051091;28;20052;-66
2021/05/31 08:25:32;;;;;;;37.20;28.40;;;13.90;92.20;;;;;;5050698;28;20060;-66
2021/05/31 08:28:01;;;;;;;33.77;26.57;;;13.90;91.90;;;;;;5051321;28;20052;-66
2021/05/31 08:30:27;;;;;;;32.60;25.80;;;14.00;91.80;;;;;;5051482;28;20095;-66
2021/05/31 08:32:52;;;;;;;32.43;27.43;;;14.00;91.70;;;;;;5050948;28;20049;-67
2021/05/31 08:35:18;;;;;;;34.00;26.83;;;14.00;91.70;;;;;;5051509;28;20059;-66
2021/05/31 08:37:44;;;;;;;34.40;26.47;;;14.00;91.60;;;;;;5051573;28;20049;-67
2021/05/31 08:40:10;;;;;;;37.23;28.10;;;14.20;91.60;;;;;;5050904;28;20108;-67
2021/05/31 08:42:40;;;;;;;28.87;25.63;;;14.30;91.60;;;;;;5051271;28;20053;-67
2021/05/31 08:45:08;;;;;;;28.83;25.43;;;14.40;91.40;;;;;;5051416;28;20045;-66
2021/05/31 08:47:45;;;;;;;31.37;25.37;;;14.50;91.20;;;;;;5050371;28;20135;-67
2021/05/31 08:50:13;;;;;;;31.07;25.63;;;14.60;91.10;;;;;;5050818;28;20136;-67
2021/05/31 08:52:39;;;;;;;30.17;26.43;;;14.70;91.00;;;;;;5051501;28;20045;-67
2021/05/31 08:55:08;;;;;;;28.80;25.73;;;14.90;90.90;;;;;;5050701;28;20106;-67
2021/05/31 08:57:34;;;;;;;28.53;25.10;;;14.90;90.80;;;;;;5051463;28;20057;-67
2021/05/31 08:59:59;;;;;;;31.43;26.00;;;15.10;90.70;;;;;;5051318;28;20041;-66
2021/05/31 09:02:31;;;;;;;30.33;27.13;;;15.30;90.60;;;;;;5050199;28;20057;-67
2021/05/31 09:04:57;;;;;;;;;;;15.30;90.40;;;;;;5052310;28;20053;-66
2021/05/31 09:07:22;;;;;;;29.17;26.03;;;15.50;89.50;;;;;;5050498;28;20276;-68
2021/05/31 09:09:48;;;;;;;31.33;27.93;;;15.80;90.90;;;;;;5051048;28;20048;-67
2021/05/31 09:12:22;;;;;;;30.43;26.53;;;16.00;90.70;;;;;;5050278;28;20060;-67
2021/05/31 09:15:01;;;;;;;30.83;27.63;;;16.30;90.90;;;;;;5049749;28;20049;-67
2021/05/31 09:17:29;;;;;;;30.27;26.60;;;16.60;90.70;;;;;;5049941;28;20052;-67
2021/05/31 09:19:55;;;;;;;30.27;26.83;;;16.80;90.90;;;;;;5049621;28;20440;-67
2021/05/31 09:22:23;;;;;;;29.97;26.77;;;16.90;90.40;;;;;;5047739;28;20159;-67
2021/05/31 09:25:03;;;;;;;30.27;27.13;;;17.10;90.00;;;;;;5049142;28;20063;-67
2021/05/31 09:27:30;;;;;;;29.27;26.17;;;17.40;88.60;;;;;;5049209;28;20482;-67
2021/05/31 09:30:05;;;;;;;28.73;25.83;;;17.70;87.80;;;;;;5049437;28;20052;-66
2021/05/31 09:32:30;;;;;;;26.83;23.33;;;18.00;85.00;;;;;;5050801;28;20542;-67
2021/05/31 09:35:12;;;;;;;27.50;24.60;;;18.10;82.90;;;;;;5051163;28;20076;-66
2021/05/31 09:37:49;;;;;;;26.80;23.75;;;18.30;80.60;;;;;;5050303;28;20123;-67
2021/05/31 09:40:26;;;;;;;26.20;23.37;;;18.40;79.50;;;;;;5050557;28;20140;-67
2021/05/31 09:42:55;;;;;;;27.47;24.57;;;18.50;77.90;;;;;;5050413;28;20070;-67
2021/05/31 09:45:21;;;;;;;28.03;25.10;;;18.50;76.20;;;;;;5050497;28;20079;-67
2021/05/31 09:47:47;;;;;;;26.17;23.37;;;18.60;75.60;;;;;;5051135;28;20072;-67
2021/05/31 09:50:28;;;;;;;23.40;20.37;;;18.60;74.70;;;;;;5049732;28;20486;-66
2021/05/31 09:53:12;;;;;;;25.05;21.70;;;18.60;73.20;;;;;;5050978;28;20124;-67
2021/05/31 09:55:44;;;;;;;21.33;18.43;;;18.70;73.30;;;;;;5051080;28;20106;-67
2021/05/31 09:58:12;;;;;;;26.30;21.10;;;18.80;72.60;;;;;;5050110;28;20085;-67
2021/05/31 10:00:40;;;;;;;23.93;20.83;;;18.90;72.00;;;;;;5050749;28;20049;-67
2021/05/31 10:10:45;;;;;;;22.13;19.53;;;19.20;70.10;;;;;;5049334;28;20045;-66
2021/05/31 10:13:11;;;;;;;24.33;19.73;;;19.30;69.80;;;;;;5050541;28;20498;-67
2021/05/31 10:15:40;;;;;;;20.80;18.07;;;19.30;68.90;;;;;;5050121;28;20055;-67
2021/05/31 10:18:13;;;;;;;20.77;17.40;;;19.40;68.70;;;;;;5049387;28;20089;-67
2021/05/31 10:20:39;;;;;;;20.17;18.00;;;19.60;68.50;;;;;;5050426;28;20131;-66
2021/05/31 10:23:07;;;;;;;21.60;18.47;;;19.70;68.80;;;;;;5050621;28;20123;-66
2021/05/31 10:25:38;;;;;;;19.77;17.73;;;19.90;67.40;;;;;;5051845;28;20063;-67
2021/05/31 10:28:27;;;;;;;21.97;17.40;;;19.90;67.00;;;;;;5054239;28;20143;-67
2021/05/31 10:31:08;;;;;;;20.77;17.50;;;20.00;66.10;;;;;;5053751;28;20547;-67
2021/05/31 10:33:40;;;;;;;20.92;17.33;;;20.10;65.20;;;;;;5052972;28;20128;-67
2021/05/31 10:36:19;;;;;;;24.00;17.20;;;20.10;65.00;;;;;;5053374;28;20045;-67
2021/05/31 10:38:50;;;;;;;19.83;16.23;;;20.10;64.20;;;;;;5053661;28;20128;-67
2021/05/31 10:41:19;;;;;;;18.03;15.20;;;20.20;64.50;;;;;;5053324;28;20625;-67
2021/05/31 10:43:50;;;;;;;13.50;12.10;;;20.30;64.30;;;;;;5053804;28;20562;-67
2021/05/31 10:46:19;;;;;;;17.17;15.07;;;20.50;63.10;;;;;;5052604;28;20409;-67
2021/05/31 10:48:48;;;;;;;17.17;13.70;;;20.60;62.80;;;;;;5053592;28;20068;-67
2021/05/31 10:51:24;;;;;;;15.23;12.20;;;20.70;61.10;;;;;;5053310;28;20125;-67
2021/05/31 10:53:51;;;;;;;14.97;12.47;;;20.70;59.90;;;;;;5053127;28;20060;-67
2021/05/31 10:56:17;;;;;;;13.13;11.50;;;20.90;60.00;;;;;;5053032;28;20048;-67
2021/05/31 10:58:51;;;;;;;13.37;9.90;;;21.00;59.70;;;;;;5053364;28;20049;-66
2021/05/31 11:01:26;;;;;;;10.33;8.37;;;21.00;58.20;;;;;;5052411;28;20045;-68
2021/05/31 11:03:59;;;;;;;11.17;8.73;;;21.10;57.70;;;;;;5053521;28;20057;-67
2021/05/31 11:06:26;;;;;;;13.23;9.13;;;21.20;57.60;;;;;;5047025;28;20059;-66
2021/05/31 11:08:53;;;;;;;11.07;8.37;;;21.40;57.00;;;;;;5061479;28;20052;-67
2021/05/31 11:11:41;;;;;;;9.50;8.23;;;21.60;56.60;;;;;;5069259;28;20098;-67
2021/05/31 11:14:08;;;;;;;9.53;8.20;;;21.70;54.70;;;;;;5069031;28;20064;-66
2021/05/31 11:16:35;;;;;;;9.77;8.23;;;21.70;54.00;;;;;;5069490;28;20053;-67
2021/05/31 11:19:04;;;;;;;10.57;8.20;;;21.70;53.30;;;;;;5069123;28;20817;-67
2021/05/31 11:21:42;;;;;;;9.10;8.03;;;21.90;53.40;;;;;;5069032;28;20462;-65
2021/05/31 11:24:18;;;;;;;11.07;8.00;;;22.00;53.10;;;;;;5069830;28;20139;-65
2021/05/31 11:26:47;;;;;;;10.60;8.00;;;22.00;53.10;;;;;;5069210;28;20124;-66
2021/05/31 11:29:14;;;;;;;10.13;8.13;;;22.10;52.70;;;;;;5068869;28;20134;-68
2021/05/31 11:31:43;;;;;;;11.37;8.43;;;22.20;52.60;;;;;;5069702;28;20564;-66
2021/05/31 11:34:08;;;;;;;10.73;7.63;;;22.30;51.80;;;;;;5072708;28;20045;-67
2021/05/31 11:36:38;;;;;;;9.57;8.57;;;22.30;51.80;;;;;;5071451;28;20048;-67
2021/05/31 11:39:13;;;;;;;9.77;8.30;;;22.30;51.70;;;;;;5072791;28;20462;-67
2021/05/31 11:41:45;;;;;;;12.27;10.20;;;22.40;50.80;;;;;;5072857;28;20076;-67
2021/05/31 11:44:29;;;;;;;10.67;8.93;;;22.40;50.20;;;;;;5072241;28;20059;-67
2021/05/31 11:46:59;;;;;;;11.60;9.57;;;22.50;49.80;;;;;;5072773;28;20056;-67
2021/05/31 11:49:27;;;;;;;9.93;8.90;;;22.50;50.40;;;;;;5071939;28;20417;-67
2021/05/31 11:52:03;;;;;;;10.85;8.30;;;22.50;50.60;;;;;;5072832;28;20048;-67
2021/05/31 11:54:32;;;;;;;9.63;8.05;;;22.60;50.50;;;;;;5072501;28;20079;-67
2021/05/31 11:57:23;;;;;;;11.70;8.75;;;22.70;50.00;;;;;;5071857;28;20105;-67
2021/05/31 11:59:51;;;;;;;10.23;8.30;;;22.70;49.30;;;;;;5072379;28;20182;-67
2021/05/31 12:02:19;;;;;;;12.02;9.10;;;22.80;49.60;;;;;;5072027;28;20139;-67
2021/05/31 12:04:47;;;;;;;10.10;8.63;;;22.90;49.10;;;;;;5071522;28;20489;-67
2021/05/31 12:07:16;;;;;;;10.38;7.75;;;23.00;48.80;;;;;;5071806;28;20049;-67
2021/05/31 12:09:43;;;;;;;10.43;8.70;;;23.00;48.40;;;;;;5071148;28;20060;-67
2021/05/31 12:12:15;;;;;;;9.40;7.43;;;22.90;48.80;;;;;;5070213;28;20044;-67
2021/05/31 12:14:43;;;;;;;8.18;6.03;;;22.90;49.00;;;;;;5071396;28;20119;-67
2021/05/31 12:17:12;;;;;;;14.27;8.95;;;23.00;48.80;;;;;;5071068;28;20167;-67
2021/05/31 12:19:40;;;;;;;12.80;10.23;;;23.20;48.90;;;;;;5071151;28;20045;-68
2021/05/31 12:22:07;;;;;;;10.23;7.78;;;23.30;48.40;;;;;;5070887;28;20059;-67
2021/05/31 12:24:35;;;;;;;9.95;7.95;;;23.30;48.00;;;;;;5070603;28;20092;-67
2021/05/31 12:27:02;;;;;;;8.93;6.75;;;23.30;47.50;;;;;;5072067;28;20052;-67
2021/05/31 12:29:33;;;;;;;9.30;6.70;;;23.40;47.00;;;;;;5071508;28;20068;-67
2021/05/31 12:31:59;;;;;;;6.50;5.03;;;23.50;45.50;;;;;;5070952;28;20048;-67
2021/05/31 12:34:25;;;;;;;6.55;4.50;;;23.50;45.50;;;;;;5071443;28;20068;-67
2021/05/31 12:36:52;;;;;;;6.13;4.35;;;23.60;44.80;;;;;;5071570;28;20056;-68
2021/05/31 12:39:18;;;;;;;5.88;4.53;;;23.70;45.10;;;;;;5070572;28;20048;-67
2021/05/31 12:41:45;;;;;;;6.63;4.47;;;23.80;44.70;;;;;;5071462;28;20048;-67
2021/05/31 12:44:10;;;;;;;10.00;4.68;;;24.00;43.90;;;;;;5071677;28;20056;-67
2021/05/31 12:46:39;;;;;;;8.77;4.72;;;24.00;42.50;;;;;;5070113;28;20382;-67
2021/05/31 12:49:05;;;;;;;5.85;4.38;;;24.00;42.60;;;;;;5071316;28;20052;-67
2021/05/31 12:51:31;;;;;;;8.10;4.93;;;23.90;42.90;;;;;;5070992;28;20048;-68
2021/05/31 12:54:01;;;;;;;6.68;5.60;;;24.00;42.20;;;;;;5070496;28;20454;-67
2021/05/31 12:56:30;;;;;;;9.70;5.97;;;24.10;42.10;;;;;;5071383;28;20365;-67